sensor_id;sensor_type;location;lat;lon;timestamp;pressure;altitude;pressure_sealevel;temperature;humidity
65173;BME280;51758;52.218;5.172;2023-03-23T00:01:47;98067.09;;;11.10;100.00
65173;BME280;51758;52.218;5.172;2023-03-23T00:04:15;98081.19;;;11.09;100.00
65173;BME280;51758;52.218;5.172;2023-03-23T00:06:42;98090.53;;;11.05;100.00
65173;BME280;51758;52.218;5.172;2023-03-23T00:09:12;98099.50;;;11.14;100.00
65173;BME280;51758;52.218;5.172;2023-03-23T00:11:41;98095.97;;;10.99;100.00
65173;BME280;51758;52.218;5.172;2023-03-23T00:14:09;98118.53;;;11.10;100.00
65173;BME280;51758;52.218;5.172;2023-03-23T00:16:39;98127.19;;;11.16;100.00
65173;BME280;51758;52.218;5.172;2023-03-23T00:19:09;98133.81;;;11.23;100.00
65173;BME280;51758;52.218;5.172;2023-03-23T00:21:39;98149.94;;;11.20;100.00
65173;BME280;51758;52.218;5.172;2023-03-23T00:24:08;98147.09;;;11.22;100.00
65173;BME280;51758;52.218;5.172;2023-03-23T00:26:38;98149.16;;;11.20;100.00
65173;BME280;51758;52.218;5.172;2023-03-23T00:29:08;98161.50;;;11.24;100.00
65173;BME280;51758;52.218;5.172;2023-03-23T00:31:39;98175.22;;;11.14;100.00
65173;BME280;51758;52.218;5.172;2023-03-23T00:34:05;98179.72;;;11.19;100.00
65173;BME280;51758;52.218;5.172;2023-03-23T00:36:33;98184.94;;;11.19;100.00
65173;BME280;51758;52.218;5.172;2023-03-23T00:39:01;98178.75;;;11.25;100.00
65173;BME280;51758;52.218;5.172;2023-03-23T00:41:28;98183.91;;;11.20;100.00
65173;BME280;51758;52.218;5.172;2023-03-23T00:43:57;98191.00;;;11.25;100.00
65173;BME280;51758;52.218;5.172;2023-03-23T00:46:26;98194.75;;;11.34;100.00
65173;BME280;51758;52.218;5.172;2023-03-23T00:48:53;98197.31;;;11.29;100.00
65173;BME280;51758;52.218;5.172;2023-03-23T00:51:22;98192.53;;;11.21;100.00
65173;BME280;51758;52.218;5.172;2023-03-23T00:53:49;98213.81;;;11.34;100.00
65173;BME280;51758;52.218;5.172;2023-03-23T00:56:16;98215.88;;;11.32;100.00
65173;BME280;51758;52.218;5.172;2023-03-23T00:58:42;98229.44;;;11.29;100.00
65173;BME280;51758;52.218;5.172;2023-03-23T01:01:10;98222.91;;;11.27;100.00
65173;BME280;51758;52.218;5.172;2023-03-23T01:03:37;98235.19;;;11.31;100.00
65173;BME280;51758;52.218;5.172;2023-03-23T01:06:05;98219.78;;;11.30;100.00
65173;BME280;51758;52.218;5.172;2023-03-23T01:08:34;98225.19;;;11.23;100.00
65173;BME280;51758;52.218;5.172;2023-03-23T01:11:04;98246.44;;;11.32;100.00
65173;BME280;51758;52.218;5.172;2023-03-23T01:13:32;98250.16;;;11.36;100.00
65173;BME280;51758;52.218;5.172;2023-03-23T01:15:59;98262.66;;;11.34;100.00
65173;BME280;51758;52.218;5.172;2023-03-23T01:18:27;98269.94;;;11.32;100.00
65173;BME280;51758;52.218;5.172;2023-03-23T01:20:54;98276.50;;;11.34;100.00
65173;BME280;51758;52.218;5.172;2023-03-23T01:23:20;98271.78;;;11.31;100.00
65173;BME280;51758;52.218;5.172;2023-03-23T01:25:47;98252.69;;;11.31;100.00
65173;BME280;51758;52.218;5.172;2023-03-23T01:28:14;98254.81;;;11.34;100.00
65173;BME280;51758;52.218;5.172;2023-03-23T01:30:41;98251.72;;;11.37;100.00
65173;BME280;51758;52.218;5.172;2023-03-23T01:33:08;98265.75;;;11.31;100.00
65173;BME280;51758;52.218;5.172;2023-03-23T01:35:38;98253.56;;;11.36;100.00
65173;BME280;51758;52.218;5.172;2023-03-23T01:38:05;98258.47;;;11.33;100.00
65173;BME280;51758;52.218;5.172;2023-03-23T01:40:31;98257.19;;;11.35;100.00
65173;BME280;51758;52.218;5.172;2023-03-23T01:42:58;98262.13;;;11.32;100.00
65173;BME280;51758;52.218;5.172;2023-03-23T01:45:28;98268.38;;;11.31;100.00
65173;BME280;51758;52.218;5.172;2023-03-23T01:48:00;98278.03;;;11.30;100.00
65173;BME280;51758;52.218;5.172;2023-03-23T01:50:29;98275.47;;;11.35;100.00
65173;BME280;51758;52.218;5.172;2023-03-23T01:53:03;98275.00;;;11.38;100.00
65173;BME280;51758;52.218;5.172;2023-03-23T01:55:35;98269.13;;;11.26;100.00
65173;BME280;51758;52.218;5.172;2023-03-23T01:58:04;98278.56;;;11.32;100.00
65173;BME280;51758;52.218;5.172;2023-03-23T02:00:32;98283.31;;;11.35;100.00
65173;BME280;51758;52.218;5.172;2023-03-23T02:03:00;98278.41;;;11.39;100.00
65173;BME280;51758;52.218;5.172;2023-03-23T02:05:30;98288.84;;;11.39;100.00
65173;BME280;51758;52.218;5.172;2023-03-23T02:08:03;98287.75;;;11.35;100.00
65173;BME280;51758;52.218;5.172;2023-03-23T02:10:31;98272.25;;;11.28;100.00
65173;BME280;51758;52.218;5.172;2023-03-23T02:12:59;98281.03;;;11.39;100.00
65173;BME280;51758;52.218;5.172;2023-03-23T02:15:28;98289.09;;;11.37;100.00
65173;BME280;51758;52.218;5.172;2023-03-23T02:18:03;98287.69;;;11.30;100.00
65173;BME280;51758;52.218;5.172;2023-03-23T02:20:48;98282.78;;;11.33;100.00
65173;BME280;51758;52.218;5.172;2023-03-23T02:23:33;98298.19;;;11.35;100.00
65173;BME280;51758;52.218;5.172;2023-03-23T02:26:24;98277.84;;;11.37;100.00
65173;BME280;51758;52.218;5.172;2023-03-23T02:29:13;98257.47;;;11.12;100.00
65173;BME280;51758;52.218;5.172;2023-03-23T02:32:04;98283.81;;;11.32;100.00
65173;BME280;51758;52.218;5.172;2023-03-23T02:34:39;98295.28;;;11.31;100.00
65173;BME280;51758;52.218;5.172;2023-03-23T02:37:09;98289.88;;;11.38;100.00
65173;BME280;51758;52.218;5.172;2023-03-23T02:39:43;98303.97;;;11.37;100.00
65173;BME280;51758;52.218;5.172;2023-03-23T02:42:14;98297.72;;;11.38;100.00
65173;BME280;51758;52.218;5.172;2023-03-23T02:44:44;98300.56;;;11.36;100.00
65173;BME280;51758;52.218;5.172;2023-03-23T02:47:14;98289.25;;;11.31;100.00
65173;BME280;51758;52.218;5.172;2023-03-23T02:49:46;98301.91;;;11.39;100.00
65173;BME280;51758;52.218;5.172;2023-03-23T02:52:17;98308.44;;;11.41;100.00
65173;BME280;51758;52.218;5.172;2023-03-23T02:54:47;98293.09;;;11.45;100.00
65173;BME280;51758;52.218;5.172;2023-03-23T02:57:15;98304.56;;;11.44;100.00
65173;BME280;51758;52.218;5.172;2023-03-23T02:59:42;98299.88;;;11.46;100.00
65173;BME280;51758;52.218;5.172;2023-03-23T03:02:13;98299.88;;;11.46;100.00
65173;BME280;51758;52.218;5.172;2023-03-23T03:04:47;98301.22;;;11.48;100.00
65173;BME280;51758;52.218;5.172;2023-03-23T03:07:31;98305.91;;;11.46;100.00
65173;BME280;51758;52.218;5.172;2023-03-23T03:10:03;98318.66;;;11.43;100.00
65173;BME280;51758;52.218;5.172;2023-03-23T03:12:39;98311.44;;;11.50;100.00
65173;BME280;51758;52.218;5.172;2023-03-23T03:15:17;98317.72;;;11.54;100.00
65173;BME280;51758;52.218;5.172;2023-03-23T03:17:48;98315.97;;;11.60;100.00
65173;BME280;51758;52.218;5.172;2023-03-23T03:20:19;98322.78;;;11.61;100.00
65173;BME280;51758;52.218;5.172;2023-03-23T03:22:47;98304.41;;;11.51;100.00
65173;BME280;51758;52.218;5.172;2023-03-23T03:25:14;98327.94;;;11.56;100.00
65173;BME280;51758;52.218;5.172;2023-03-23T03:27:44;98331.41;;;11.61;100.00
65173;BME280;51758;52.218;5.172;2023-03-23T03:30:16;98336.63;;;11.61;100.00
65173;BME280;51758;52.218;5.172;2023-03-23T03:32:46;98327.94;;;11.56;100.00
65173;BME280;51758;52.218;5.172;2023-03-23T03:35:14;98339.28;;;11.66;100.00
65173;BME280;51758;52.218;5.172;2023-03-23T03:37:42;98344.28;;;11.68;100.00
65173;BME280;51758;52.218;5.172;2023-03-23T03:40:12;98354.69;;;11.63;100.00
65173;BME280;51758;52.218;5.172;2023-03-23T03:42:41;98343.72;;;11.66;100.00
65173;BME280;51758;52.218;5.172;2023-03-23T03:45:09;98315.94;;;11.33;100.00
65173;BME280;51758;52.218;5.172;2023-03-23T03:47:37;98337.38;;;11.57;100.00
65173;BME280;51758;52.218;5.172;2023-03-23T03:50:04;98378.47;;;11.61;100.00
65173;BME280;51758;52.218;5.172;2023-03-23T03:52:31;98359.97;;;11.46;100.00
65173;BME280;51758;52.218;5.172;2023-03-23T03:54:59;98346.06;;;11.19;100.00
65173;BME280;51758;52.218;5.172;2023-03-23T03:57:26;98316.97;;;11.10;100.00
65173;BME280;51758;52.218;5.172;2023-03-23T03:59:53;98284.22;;;11.02;100.00
65173;BME280;51758;52.218;5.172;2023-03-23T04:02:19;98277.38;;;10.96;100.00
65173;BME280;51758;52.218;5.172;2023-03-23T04:04:46;98241.97;;;10.84;100.00
65173;BME280;51758;52.218;5.172;2023-03-23T04:07:13;98239.38;;;10.84;100.00
65173;BME280;51758;52.218;5.172;2023-03-23T04:09:41;98207.84;;;10.90;100.00
65173;BME280;51758;52.218;5.172;2023-03-23T04:12:10;98180.59;;;10.81;100.00
65173;BME280;51758;52.218;5.172;2023-03-23T04:14:36;98160.16;;;10.73;100.00
65173;BME280;51758;52.218;5.172;2023-03-23T04:17:03;98136.31;;;10.64;100.00
65173;BME280;51758;52.218;5.172;2023-03-23T04:19:32;98101.94;;;10.46;100.00
65173;BME280;51758;52.218;5.172;2023-03-23T04:21:59;98024.16;;;10.43;100.00
65173;BME280;51758;52.218;5.172;2023-03-23T04:24:26;97981.78;;;10.30;100.00
65173;BME280;51758;52.218;5.172;2023-03-23T04:26:56;97929.00;;;10.18;100.00
65173;BME280;51758;52.218;5.172;2023-03-23T04:29:24;97898.31;;;10.03;100.00
65173;BME280;51758;52.218;5.172;2023-03-23T04:31:51;97881.16;;;10.07;100.00
65173;BME280;51758;52.218;5.172;2023-03-23T04:34:21;97831.16;;;10.11;100.00
65173;BME280;51758;52.218;5.172;2023-03-23T04:36:48;97815.28;;;10.17;100.00
65173;BME280;51758;52.218;5.172;2023-03-23T04:39:15;97777.84;;;10.28;100.00
65173;BME280;51758;52.218;5.172;2023-03-23T04:41:41;97753.66;;;10.33;100.00
65173;BME280;51758;52.218;5.172;2023-03-23T04:44:09;97749.22;;;10.33;100.00
65173;BME280;51758;52.218;5.172;2023-03-23T04:46:37;97738.84;;;10.44;100.00
65173;BME280;51758;52.218;5.172;2023-03-23T04:49:04;97744.09;;;10.49;100.00
65173;BME280;51758;52.218;5.172;2023-03-23T04:51:31;97740.19;;;10.51;100.00
65173;BME280;51758;52.218;5.172;2023-03-23T04:53:58;97766.03;;;10.53;100.00
65173;BME280;51758;52.218;5.172;2023-03-23T04:56:25;97783.03;;;10.60;100.00
65173;BME280;51758;52.218;5.172;2023-03-23T04:58:51;97820.91;;;10.68;100.00
65173;BME280;51758;52.218;5.172;2023-03-23T05:01:18;97848.22;;;10.55;100.00
65173;BME280;51758;52.218;5.172;2023-03-23T05:03:46;97896.88;;;10.71;100.00
65173;BME280;51758;52.218;5.172;2023-03-23T05:06:13;97926.31;;;10.67;100.00
65173;BME280;51758;52.218;5.172;2023-03-23T05:08:39;97961.78;;;10.63;100.00
65173;BME280;51758;52.218;5.172;2023-03-23T05:11:06;97969.09;;;10.66;100.00
65173;BME280;51758;52.218;5.172;2023-03-23T05:13:34;97988.34;;;10.60;100.00
65173;BME280;51758;52.218;5.172;2023-03-23T05:16:03;97993.50;;;10.55;100.00
65173;BME280;51758;52.218;5.172;2023-03-23T05:18:30;98003.44;;;10.58;100.00
65173;BME280;51758;52.218;5.172;2023-03-23T05:21:01;98021.38;;;10.49;100.00
65173;BME280;51758;52.218;5.172;2023-03-23T05:23:28;98031.03;;;10.49;100.00
65173;BME280;51758;52.218;5.172;2023-03-23T05:25:56;98024.47;;;10.46;100.00
65173;BME280;51758;52.218;5.172;2023-03-23T05:28:25;98022.03;;;10.39;100.00
65173;BME280;51758;52.218;5.172;2023-03-23T05:30:52;98027.00;;;10.41;100.00
65173;BME280;51758;52.218;5.172;2023-03-23T05:33:21;98024.94;;;10.43;100.00
65173;BME280;51758;52.218;5.172;2023-03-23T05:35:48;98028.81;;;10.40;100.00
65173;BME280;51758;52.218;5.172;2023-03-23T05:38:16;98013.88;;;10.31;100.00
65173;BME280;51758;52.218;5.172;2023-03-23T05:40:43;98020.59;;;10.27;100.00
65173;BME280;51758;52.218;5.172;2023-03-23T05:43:10;98031.22;;;10.20;100.00
65173;BME280;51758;52.218;5.172;2023-03-23T05:45:37;98033.22;;;10.13;100.00
65173;BME280;51758;52.218;5.172;2023-03-23T05:48:04;98021.25;;;10.17;100.00
65173;BME280;51758;52.218;5.172;2023-03-23T05:50:31;98014.97;;;10.13;100.00
65173;BME280;51758;52.218;5.172;2023-03-23T05:52:58;98000.59;;;10.11;100.00
65173;BME280;51758;52.218;5.172;2023-03-23T05:55:26;97992.44;;;10.07;100.00
65173;BME280;51758;52.218;5.172;2023-03-23T05:57:53;97967.72;;;10.10;100.00
65173;BME280;51758;52.218;5.172;2023-03-23T06:00:20;97915.78;;;9.81;100.00
65173;BME280;51758;52.218;5.172;2023-03-23T06:02:49;97931.94;;;10.05;100.00
65173;BME280;51758;52.218;5.172;2023-03-23T06:05:16;97921.66;;;9.93;100.00
65173;BME280;51758;52.218;5.172;2023-03-23T06:07:43;97919.13;;;9.98;100.00
65173;BME280;51758;52.218;5.172;2023-03-23T06:10:10;97903.50;;;9.98;100.00
65173;BME280;51758;52.218;5.172;2023-03-23T06:12:39;97900.09;;;9.98;100.00
65173;BME280;51758;52.218;5.172;2023-03-23T06:15:07;97881.84;;;9.98;100.00
65173;BME280;51758;52.218;5.172;2023-03-23T06:17:35;97855.25;;;9.96;100.00
65173;BME280;51758;52.218;5.172;2023-03-23T06:20:03;97854.78;;;10.04;100.00
65173;BME280;51758;52.218;5.172;2023-03-23T06:22:34;97836.31;;;10.05;100.00
65173;BME280;51758;52.218;5.172;2023-03-23T06:25:00;97832.13;;;10.04;100.00
65173;BME280;51758;52.218;5.172;2023-03-23T06:27:27;97807.94;;;10.09;100.00
65173;BME280;51758;52.218;5.172;2023-03-23T06:29:55;97780.78;;;10.05;100.00
65173;BME280;51758;52.218;5.172;2023-03-23T06:32:22;97767.56;;;10.12;100.00
65173;BME280;51758;52.218;5.172;2023-03-23T06:34:50;97761.56;;;10.11;100.00
65173;BME280;51758;52.218;5.172;2023-03-23T06:37:16;97761.31;;;10.18;100.00
65173;BME280;51758;52.218;5.172;2023-03-23T06:39:43;97769.41;;;10.16;100.00
65173;BME280;51758;52.218;5.172;2023-03-23T06:42:11;97767.66;;;10.22;100.00
65173;BME280;51758;52.218;5.172;2023-03-23T06:44:37;97770.97;;;10.17;100.00
65173;BME280;51758;52.218;5.172;2023-03-23T06:47:06;97787.72;;;10.21;100.00
65173;BME280;51758;52.218;5.172;2023-03-23T06:49:33;97795.53;;;10.21;100.00
65173;BME280;51758;52.218;5.172;2023-03-23T06:52:00;97807.06;;;10.25;100.00
65173;BME280;51758;52.218;5.172;2023-03-23T06:54:29;97807.06;;;10.30;100.00
65173;BME280;51758;52.218;5.172;2023-03-23T06:56:56;97808.88;;;10.25;100.00
65173;BME280;51758;52.218;5.172;2023-03-23T06:59:23;97807.84;;;10.26;100.00
65173;BME280;51758;52.218;5.172;2023-03-23T07:01:50;97818.00;;;10.27;100.00
65173;BME280;51758;52.218;5.172;2023-03-23T07:04:18;97825.34;;;10.30;100.00
65173;BME280;51758;52.218;5.172;2023-03-23T07:06:45;97827.22;;;10.40;100.00
65173;BME280;51758;52.218;5.172;2023-03-23T07:09:13;97824.63;;;10.40;100.00
65173;BME280;51758;52.218;5.172;2023-03-23T07:11:39;97843.16;;;10.44;100.00
65173;BME280;51758;52.218;5.172;2023-03-23T07:14:06;97856.22;;;10.44;100.00
65173;BME280;51758;52.218;5.172;2023-03-23T07:16:33;97866.63;;;10.44;100.00
65173;BME280;51758;52.218;5.172;2023-03-23T07:19:00;97877.31;;;10.42;100.00
65173;BME280;51758;52.218;5.172;2023-03-23T07:21:28;97890.44;;;10.52;100.00
65173;BME280;51758;52.218;5.172;2023-03-23T07:23:55;97912.63;;;10.55;100.00
65173;BME280;51758;52.218;5.172;2023-03-23T07:26:21;97941.72;;;10.68;100.00
65173;BME280;51758;52.218;5.172;2023-03-23T07:28:48;97955.50;;;10.64;100.00
65173;BME280;51758;52.218;5.172;2023-03-23T07:31:15;97982.34;;;10.59;100.00
65173;BME280;51758;52.218;5.172;2023-03-23T07:33:42;97999.84;;;10.64;100.00
65173;BME280;51758;52.218;5.172;2023-03-23T07:36:09;98022.16;;;10.50;100.00
65173;BME280;51758;52.218;5.172;2023-03-23T07:38:38;98046.78;;;10.59;100.00
65173;BME280;51758;52.218;5.172;2023-03-23T07:41:05;98058.03;;;10.64;100.00
65173;BME280;51758;52.218;5.172;2023-03-23T07:43:32;98075.59;;;10.47;100.00
65173;BME280;51758;52.218;5.172;2023-03-23T07:45:59;98090.81;;;10.55;100.00
65173;BME280;51758;52.218;5.172;2023-03-23T07:48:26;98091.38;;;10.57;100.00
65173;BME280;51758;52.218;5.172;2023-03-23T07:50:53;98110.31;;;10.48;100.00
65173;BME280;51758;52.218;5.172;2023-03-23T07:53:19;98106.78;;;10.59;100.00
65173;BME280;51758;52.218;5.172;2023-03-23T07:55:50;98110.72;;;10.61;100.00
65173;BME280;51758;52.218;5.172;2023-03-23T07:58:17;98114.72;;;10.69;100.00
65173;BME280;51758;52.218;5.172;2023-03-23T08:00:46;98132.97;;;10.69;100.00
65173;BME280;51758;52.218;5.172;2023-03-23T08:03:14;98142.59;;;10.63;100.00
65173;BME280;51758;52.218;5.172;2023-03-23T08:05:41;98160.28;;;10.83;100.00
65173;BME280;51758;52.218;5.172;2023-03-23T08:08:09;98161.69;;;10.69;100.00
65173;BME280;51758;52.218;5.172;2023-03-23T08:10:36;98191.91;;;10.87;100.00
65173;BME280;51758;52.218;5.172;2023-03-23T08:13:04;98209.78;;;10.78;100.00
65173;BME280;51758;52.218;5.172;2023-03-23T08:15:33;98208.84;;;10.84;100.00
65173;BME280;51758;52.218;5.172;2023-03-23T08:18:02;98206.41;;;10.99;100.00
65173;BME280;51758;52.218;5.172;2023-03-23T08:20:29;98220.19;;;10.95;100.00
65173;BME280;51758;52.218;5.172;2023-03-23T08:22:56;98218.53;;;11.10;100.00
65173;BME280;51758;52.218;5.172;2023-03-23T08:25:23;98229.28;;;10.92;100.00
65173;BME280;51758;52.218;5.172;2023-03-23T08:27:51;98233.31;;;11.00;100.00
65173;BME280;51758;52.218;5.172;2023-03-23T08:30:20;98241.78;;;11.12;100.00
65173;BME280;51758;52.218;5.172;2023-03-23T08:32:49;98245.44;;;11.11;100.00
65173;BME280;51758;52.218;5.172;2023-03-23T08:35:16;98271.56;;;11.11;100.00
65173;BME280;51758;52.218;5.172;2023-03-23T08:37:43;98283.16;;;10.98;100.00
65173;BME280;51758;52.218;5.172;2023-03-23T08:40:13;98285.88;;;11.08;100.00
65173;BME280;51758;52.218;5.172;2023-03-23T08:42:41;98293.88;;;11.02;100.00
65173;BME280;51758;52.218;5.172;2023-03-23T08:45:09;98304.94;;;11.31;100.00
65173;BME280;51758;52.218;5.172;2023-03-23T08:47:38;98289.16;;;11.21;100.00
65173;BME280;51758;52.218;5.172;2023-03-23T08:50:07;98300.38;;;11.43;100.00
65173;BME280;51758;52.218;5.172;2023-03-23T08:52:34;98326.56;;;11.48;100.00
65173;BME280;51758;52.218;5.172;2023-03-23T08:55:01;98327.69;;;11.57;100.00
65173;BME280;51758;52.218;5.172;2023-03-23T08:57:28;98347.81;;;11.78;100.00
65173;BME280;51758;52.218;5.172;2023-03-23T08:59:55;98355.84;;;11.72;100.00
65173;BME280;51758;52.218;5.172;2023-03-23T09:02:25;98322.91;;;12.67;100.00
65173;BME280;51758;52.218;5.172;2023-03-23T09:04:53;98341.19;;;12.56;100.00
65173;BME280;51758;52.218;5.172;2023-03-23T09:07:20;98399.06;;;12.28;100.00
65173;BME280;51758;52.218;5.172;2023-03-23T09:09:47;98436.59;;;12.17;100.00
65173;BME280;51758;52.218;5.172;2023-03-23T09:12:14;98449.94;;;12.15;100.00
65173;BME280;51758;52.218;5.172;2023-03-23T09:14:40;98461.94;;;12.38;100.00
65173;BME280;51758;52.218;5.172;2023-03-23T09:17:07;98487.47;;;12.26;100.00
65173;BME280;51758;52.218;5.172;2023-03-23T09:19:34;98500.69;;;12.41;100.00
65173;BME280;51758;52.218;5.172;2023-03-23T09:22:02;98514.63;;;12.47;100.00
65173;BME280;51758;52.218;5.172;2023-03-23T09:24:30;98535.44;;;12.37;100.00
65173;BME280;51758;52.218;5.172;2023-03-23T09:26:57;98553.09;;;12.46;100.00
65173;BME280;51758;52.218;5.172;2023-03-23T09:29:24;98587.03;;;12.41;100.00
65173;BME280;51758;52.218;5.172;2023-03-23T09:31:52;98606.34;;;12.35;100.00
65173;BME280;51758;52.218;5.172;2023-03-23T09:34:18;98621.72;;;12.32;100.00
65173;BME280;51758;52.218;5.172;2023-03-23T09:36:46;98633.28;;;12.36;100.00
65173;BME280;51758;52.218;5.172;2023-03-23T09:39:15;98618.66;;;12.18;100.00
65173;BME280;51758;52.218;5.172;2023-03-23T09:41:55;98654.47;;;12.34;100.00
65173;BME280;51758;52.218;5.172;2023-03-23T09:44:31;98659.22;;;12.37;100.00
65173;BME280;51758;52.218;5.172;2023-03-23T09:47:06;98693.34;;;12.26;100.00
65173;BME280;51758;52.218;5.172;2023-03-23T09:49:39;98716.56;;;12.22;100.00
65173;BME280;51758;52.218;5.172;2023-03-23T09:52:11;98727.91;;;12.11;100.00
65173;BME280;51758;52.218;5.172;2023-03-23T09:54:42;98747.72;;;12.24;100.00
65173;BME280;51758;52.218;5.172;2023-03-23T09:57:14;98779.03;;;12.18;100.00
65173;BME280;51758;52.218;5.172;2023-03-23T09:59:47;98780.28;;;12.16;100.00
65173;BME280;51758;52.218;5.172;2023-03-23T10:02:17;98791.53;;;12.16;100.00
65173;BME280;51758;52.218;5.172;2023-03-23T10:04:45;98814.38;;;12.21;100.00
65173;BME280;51758;52.218;5.172;2023-03-23T10:07:14;98831.59;;;12.17;100.00
65173;BME280;51758;52.218;5.172;2023-03-23T10:09:44;98817.81;;;12.22;100.00
65173;BME280;51758;52.218;5.172;2023-03-23T10:12:21;98820.44;;;12.38;100.00
65173;BME280;51758;52.218;5.172;2023-03-23T10:15:10;98830.41;;;12.41;100.00
65173;BME280;51758;52.218;5.172;2023-03-23T10:17:44;98845.16;;;12.47;100.00
65173;BME280;51758;52.218;5.172;2023-03-23T10:20:24;98818.81;;;12.71;100.00
65173;BME280;51758;52.218;5.172;2023-03-23T10:22:58;98845.47;;;12.68;100.00
65173;BME280;51758;52.218;5.172;2023-03-23T10:25:34;98842.03;;;12.67;100.00
65173;BME280;51758;52.218;5.172;2023-03-23T10:28:05;98835.34;;;12.93;100.00
65173;BME280;51758;52.218;5.172;2023-03-23T10:30:38;98822.28;;;13.58;100.00
65173;BME280;51758;52.218;5.172;2023-03-23T10:33:11;98859.19;;;14.01;100.00
65173;BME280;51758;52.218;5.172;2023-03-23T10:35:44;98925.00;;;13.55;100.00
65173;BME280;51758;52.218;5.172;2023-03-23T10:38:21;98940.72;;;13.34;100.00
65173;BME280;51758;52.218;5.172;2023-03-23T10:40:54;98948.69;;;14.04;100.00
65173;BME280;51758;52.218;5.172;2023-03-23T10:43:22;99016.88;;;13.82;100.00
65173;BME280;51758;52.218;5.172;2023-03-23T10:45:55;99023.75;;;13.28;100.00
65173;BME280;51758;52.218;5.172;2023-03-23T10:48:27;99001.03;;;13.72;100.00
65173;BME280;51758;52.218;5.172;2023-03-23T10:50:58;99004.69;;;14.15;100.00
65173;BME280;51758;52.218;5.172;2023-03-23T10:53:32;99048.63;;;14.24;100.00
65173;BME280;51758;52.218;5.172;2023-03-23T10:56:01;99091.13;;;15.19;100.00
65173;BME280;51758;52.218;5.172;2023-03-23T10:58:29;99163.88;;;14.43;100.00
65173;BME280;51758;52.218;5.172;2023-03-23T11:00:57;99146.09;;;14.33;100.00
65173;BME280;51758;52.218;5.172;2023-03-23T11:03:29;99161.97;;;13.66;100.00
65173;BME280;51758;52.218;5.172;2023-03-23T11:06:02;99153.75;;;13.46;100.00
65173;BME280;51758;52.218;5.172;2023-03-23T11:08:32;99183.72;;;12.81;100.00
65173;BME280;51758;52.218;5.172;2023-03-23T11:11:10;99173.50;;;12.80;100.00
65173;BME280;51758;52.218;5.172;2023-03-23T11:13:40;99126.09;;;12.65;100.00
65173;BME280;51758;52.218;5.172;2023-03-23T11:16:09;99081.19;;;13.01;100.00
65173;BME280;51758;52.218;5.172;2023-03-23T11:18:38;99083.72;;;13.13;100.00
65173;BME280;51758;52.218;5.172;2023-03-23T11:21:07;99084.09;;;12.88;100.00
65173;BME280;51758;52.218;5.172;2023-03-23T11:23:37;99071.97;;;12.99;100.00
65173;BME280;51758;52.218;5.172;2023-03-23T11:26:13;99074.47;;;12.93;100.00
65173;BME280;51758;52.218;5.172;2023-03-23T11:28:43;99086.88;;;12.98;100.00
65173;BME280;51758;52.218;5.172;2023-03-23T11:31:13;99100.25;;;12.85;100.00
65173;BME280;51758;52.218;5.172;2023-03-23T11:33:48;99119.00;;;12.93;100.00
65173;BME280;51758;52.218;5.172;2023-03-23T11:36:15;99113.97;;;12.75;100.00
65173;BME280;51758;52.218;5.172;2023-03-23T11:38:43;99118.50;;;12.80;100.00
65173;BME280;51758;52.218;5.172;2023-03-23T11:41:18;99110.63;;;12.80;100.00
65173;BME280;51758;52.218;5.172;2023-03-23T11:43:46;99081.16;;;14.02;100.00
65173;BME280;51758;52.218;5.172;2023-03-23T11:46:20;99130.78;;;14.42;100.00
65173;BME280;51758;52.218;5.172;2023-03-23T11:48:54;99170.91;;;13.70;100.00
65173;BME280;51758;52.218;5.172;2023-03-23T11:51:29;99162.09;;;13.59;100.00
65173;BME280;51758;52.218;5.172;2023-03-23T11:54:00;99172.94;;;13.80;100.00
65173;BME280;51758;52.218;5.172;2023-03-23T11:56:32;99200.25;;;13.67;100.00
65173;BME280;51758;52.218;5.172;2023-03-23T11:59:00;99197.34;;;13.80;100.00
65173;BME280;51758;52.218;5.172;2023-03-23T12:01:41;99194.03;;;14.40;100.00
65173;BME280;51758;52.218;5.172;2023-03-23T12:04:34;99258.31;;;14.98;100.00
65173;BME280;51758;52.218;5.172;2023-03-23T12:07:17;99306.53;;;15.52;100.00
65173;BME280;51758;52.218;5.172;2023-03-23T12:09:52;99329.59;;;15.67;100.00
65173;BME280;51758;52.218;5.172;2023-03-23T12:12:32;99425.94;;;14.96;100.00
65173;BME280;51758;52.218;5.172;2023-03-23T12:15:08;99372.53;;;15.07;100.00
65173;BME280;51758;52.218;5.172;2023-03-23T12:17:43;99373.78;;;15.04;100.00
65173;BME280;51758;52.218;5.172;2023-03-23T12:20:20;99315.97;;;14.49;100.00
65173;BME280;51758;52.218;5.172;2023-03-23T12:22:57;99286.47;;;14.42;100.00
65173;BME280;51758;52.218;5.172;2023-03-23T12:25:59;99255.94;;;15.18;100.00
65173;BME280;51758;52.218;5.172;2023-03-23T12:28:40;99277.38;;;14.33;100.00
65173;BME280;51758;52.218;5.172;2023-03-23T12:31:25;99239.63;;;14.73;100.00
65173;BME280;51758;52.218;5.172;2023-03-23T12:33:59;99256.91;;;15.56;100.00
65173;BME280;51758;52.218;5.172;2023-03-23T12:36:39;99335.09;;;15.44;100.00
65173;BME280;51758;52.218;5.172;2023-03-23T12:39:37;99375.94;;;15.95;100.00
65173;BME280;51758;52.218;5.172;2023-03-23T12:42:10;99368.47;;;16.77;100.00
65173;BME280;51758;52.218;5.172;2023-03-23T12:44:46;99425.34;;;16.15;100.00
65173;BME280;51758;52.218;5.172;2023-03-23T12:47:31;99463.19;;;15.43;100.00
65173;BME280;51758;52.218;5.172;2023-03-23T12:50:07;99435.97;;;15.54;100.00
65173;BME280;51758;52.218;5.172;2023-03-23T12:52:42;99396.50;;;14.94;100.00
65173;BME280;51758;52.218;5.172;2023-03-23T12:55:17;99393.69;;;15.00;100.00
65173;BME280;51758;52.218;5.172;2023-03-23T12:57:49;99370.38;;;15.04;100.00
65173;BME280;51758;52.218;5.172;2023-03-23T13:00:22;99371.84;;;14.61;100.00
65173;BME280;51758;52.218;5.172;2023-03-23T13:02:55;99333.88;;;14.69;100.00
65173;BME280;51758;52.218;5.172;2023-03-23T13:05:33;99329.22;;;14.93;100.00